Time;durP1;ratioP1;P1;durP2;ratioP2;P2;SDS_P1;SDS_P2;PMS_P1;PMS_P2;Temp;Humidity;BMP_temperature;BMP_pressure;BME280_temperature;BME280_humidity;BME280_pressure;Samples;Min_cycle;Max_cycle;Signal;HPM_P1;HPM_P2
2022/05/14 00:00:49;;;;;;;;;;;13.70;99.90;;;;;;5020384;28;20413;-86
2022/05/14 00:03:14;;;;;;;;;;;13.70;99.90;;;;;;5031740;28;20322;-86
2022/05/14 00:05:41;;;;;;;;;;;13.70;99.90;;;;;;5020331;28;19929;-86
2022/05/14 00:08:07;;;;;;;;;;;13.70;99.90;;;;;;4998717;28;20422;-86
2022/05/14 00:10:33;;;;;;;;;;;13.70;99.90;;;;;;5015713;28;20071;-80
2022/05/14 00:13:04;;;;;;;;;;;13.70;99.90;;;;;;5014445;28;20258;-81
2022/05/14 00:15:36;;;;;;;;;;;13.70;99.90;;;;;;5031581;28;20018;-81
2022/05/14 00:18:05;;;;;;;;;;;13.70;99.90;;;;;;5012788;28;20444;-81
2022/05/14 00:20:31;;;;;;;;;;;13.70;99.90;;;;;;4995549;28;19945;-82
2022/05/14 00:22:58;;;;;;;;;;;13.70;99.90;;;;;;4995074;28;19983;-81
2022/05/14 00:25:24;;;;;;;;;;;13.70;99.90;;;;;;5011974;28;19932;-81
2022/05/14 00:27:50;;;;;;;;;;;13.70;99.90;;;;;;5023945;28;19979;-81
2022/05/14 00:30:17;;;;;;;;;;;13.70;99.90;;;;;;5030918;28;19933;-81
2022/05/14 00:32:43;;;;;;;;;;;13.70;99.90;;;;;;5031675;28;20352;-81
2022/05/14 00:35:09;;;;;;;;;;;13.70;99.90;;;;;;5030871;28;19979;-81
2022/05/14 00:37:35;;;;;;;;;;;13.60;99.90;;;;;;5023709;28;20281;-81
2022/05/14 00:40:03;;;;;;;;;;;13.60;99.90;;;;;;5012153;28;19938;-81
2022/05/14 00:42:28;;;;;;;;;;;13.60;99.90;;;;;;5011782;28;20016;-81
2022/05/14 00:44:54;;;;;;;;;;;13.60;99.90;;;;;;5011465;28;20432;-80
2022/05/14 00:47:19;;;;;;;;;;;13.60;99.90;;;;;;4997234;28;19996;-80
2022/05/14 00:49:45;;;;;;;;;;;13.60;99.90;;;;;;5015221;28;19933;-81
2022/05/14 00:52:16;;;;;;;;;;;13.50;99.90;;;;;;5012786;28;19964;-81
2022/05/14 00:55:00;;;;;;;;;;;13.50;99.90;;;;;;5031210;28;19925;-81
2022/05/14 00:57:27;;;;;;;;;;;13.40;99.90;;;;;;5031516;28;20309;-80
2022/05/14 00:59:53;;;;;;;;;;;13.40;99.90;;;;;;5030745;28;20035;-81
2022/05/14 01:02:19;;;;;;;;;;;13.30;99.90;;;;;;5023444;28;19932;-81
2022/05/14 01:04:45;;;;;;;;;;;13.30;99.90;;;;;;5031139;28;20019;-81
2022/05/14 01:07:16;;;;;;;;;;;13.30;99.90;;;;;;5030374;28;20361;-81
2022/05/14 01:09:43;;;;;;;;;;;13.30;99.90;;;;;;4999399;28;20413;-81
2022/05/14 01:12:10;;;;;;;;;;;13.20;99.90;;;;;;5013503;28;20503;-81
2022/05/14 01:14:35;;;;;;;;;;;13.10;99.90;;;;;;5030897;28;19929;-81
2022/05/14 01:17:01;;;;;;;;;;;13.10;99.90;;;;;;5014480;28;19925;-81
2022/05/14 01:19:26;;;;;;;;;;;13.00;99.90;;;;;;5014522;28;19969;-81
2022/05/14 01:22:01;;;;;;;;;;;13.00;99.90;;;;;;5030300;28;20019;-81
2022/05/14 01:27:25;;;;;;;;;;;12.90;99.90;;;;;;5011562;28;20372;-81
2022/05/14 01:29:51;;;;;;;;;;;12.80;99.90;;;;;;5019550;28;19925;-83
2022/05/14 01:32:17;;;;;;;;;;;12.80;99.90;;;;;;5030628;28;20015;-81
2022/05/14 01:34:44;;;;;;;;;;;12.60;99.90;;;;;;4981816;28;20390;-81
2022/05/14 01:37:10;;;;;;;;;;;12.60;99.90;;;;;;5007651;28;19933;-81
2022/05/14 01:39:35;;;;;;;;;;;12.60;99.90;;;;;;5030104;28;19928;-80
2022/05/14 01:42:01;;;;;;;;;;;12.50;99.90;;;;;;5030569;28;19926;-81
2022/05/14 01:44:27;;;;;;;;;;;12.50;99.90;;;;;;5028301;28;20015;-80
2022/05/14 01:46:52;;;;;;;;;;;12.50;99.90;;;;;;5030601;28;19925;-81
2022/05/14 01:49:19;;;;;;;;;;;12.40;99.90;;;;;;5033401;28;19991;-81
2022/05/14 01:51:45;;;;;;;;;;;12.50;99.90;;;;;;5017562;28;20289;-81
2022/05/14 01:54:11;;;;;;;;;;;12.40;99.90;;;;;;5006986;28;20020;-82
2022/05/14 01:56:36;;;;;;;;;;;12.40;99.90;;;;;;5047519;28;19952;-82
2022/05/14 01:59:02;;;;;;;;;;;12.40;99.90;;;;;;5027166;28;20004;-81
2022/05/14 02:01:29;;;;;;;;;;;12.40;99.90;;;;;;5017671;28;20323;-81
2022/05/14 02:03:59;;;;;;;;;;;12.40;99.90;;;;;;5026386;28;19971;-84
2022/05/14 02:06:26;;;;;;;;;;;12.30;99.90;;;;;;5013876;28;19925;-81
2022/05/14 02:08:52;;;;;;;;;;;12.30;99.90;;;;;;4990849;28;19925;-81
2022/05/14 02:11:18;;;;;;;;;;;12.30;99.90;;;;;;5017193;28;19936;-82
2022/05/14 02:13:44;;;;;;;;;;;12.20;99.90;;;;;;5032015;28;19925;-82
2022/05/14 02:16:10;;;;;;;;;;;12.20;99.90;;;;;;5017563;28;19925;-81
2022/05/14 02:18:36;;;;;;;;;;;12.20;99.90;;;;;;5033587;28;20012;-82
2022/05/14 02:21:01;;;;;;;;;;;12.10;99.90;;;;;;5033435;28;20028;-81
2022/05/14 02:23:27;;;;;;;;;;;12.10;99.90;;;;;;5017191;28;19952;-82
2022/05/14 02:25:53;;;;;;;;;;;12.00;99.90;;;;;;5017682;28;19925;-81
2022/05/14 02:28:19;;;;;;;;;;;12.00;99.90;;;;;;5013444;28;19935;-81
2022/05/14 02:30:45;;;;;;;;;;;11.90;99.90;;;;;;5018758;28;19925;-81
2022/05/14 02:33:10;;;;;;;;;;;11.90;99.90;;;;;;4997266;28;20023;-81
2022/05/14 02:35:36;;;;;;;;;;;11.90;99.90;;;;;;5019977;28;20020;-81
2022/05/14 02:38:02;;;;;;;;;;;11.80;99.90;;;;;;4997422;28;19925;-81
2022/05/14 02:40:27;;;;;;;;;;;11.90;99.90;;;;;;4989013;28;20388;-82
2022/05/14 02:42:53;;;;;;;;;;;11.90;99.90;;;;;;5032892;28;19932;-81
2022/05/14 02:45:19;;;;;;;;;;;11.90;99.90;;;;;;5014990;28;19937;-81
2022/05/14 02:47:44;;;;;;;;;;;11.90;99.90;;;;;;5000836;28;19947;-81
2022/05/14 02:50:11;;;;;;;;;;;11.90;99.90;;;;;;5032046;28;19933;-81
2022/05/14 02:52:36;;;;;;;;;;;11.90;99.90;;;;;;5033463;28;20273;-82
2022/05/14 02:55:02;;;;;;;;;;;12.00;99.90;;;;;;5032974;28;19925;-81
2022/05/14 02:57:28;;;;;;;;;;;12.00;99.90;;;;;;5003050;28;20379;-82
2022/05/14 02:59:54;;;;;;;;;;;12.10;99.90;;;;;;4995949;28;20052;-82
2022/05/14 03:02:20;;;;;;;;;;;12.10;99.90;;;;;;5013451;28;19930;-81
2022/05/14 03:04:47;;;;;;;;;;;12.20;99.90;;;;;;5013101;28;19929;-81
2022/05/14 03:07:13;;;;;;;;;;;12.20;99.90;;;;;;4997922;28;19926;-81
2022/05/14 03:09:39;;;;;;;;;;;12.20;99.90;;;;;;5013311;28;19932;-81
2022/05/14 03:12:06;;;;;;;;;;;12.20;99.90;;;;;;4996500;28;19929;-81
2022/05/14 03:14:31;;;;;;;;;;;12.20;99.90;;;;;;5013096;28;19929;-81
2022/05/14 03:16:57;;;;;;;;;;;12.10;99.90;;;;;;4997938;28;19948;-82
2022/05/14 03:19:23;;;;;;;;;;;12.10;99.90;;;;;;5004049;28;19933;-82
2022/05/14 03:21:48;;;;;;;;;;;12.00;99.90;;;;;;5032242;28;20403;-81
2022/05/14 03:24:14;;;;;;;;;;;12.00;99.90;;;;;;5016076;28;19932;-82
2022/05/14 03:26:41;;;;;;;;;;;12.00;99.90;;;;;;5016383;28;19979;-81
2022/05/14 03:29:07;;;;;;;;;;;11.90;99.90;;;;;;4996224;28;20011;-82
2022/05/14 03:31:33;;;;;;;;;;;11.80;99.90;;;;;;4996574;28;19936;-81
2022/05/14 03:33:59;;;;;;;;;;;11.70;99.90;;;;;;5032068;28;19929;-81
2022/05/14 03:36:24;;;;;;;;;;;11.60;99.90;;;;;;5014581;28;19925;-81
2022/05/14 03:38:50;;;;;;;;;;;11.60;99.90;;;;;;5030271;28;20362;-81
2022/05/14 03:41:20;;;;;;;;;;;11.50;99.90;;;;;;5015643;28;20289;-81
2022/05/14 03:43:46;;;;;;;;;;;11.50;99.90;;;;;;5030496;28;19933;-81
2022/05/14 03:46:12;;;;;;;;;;;11.40;99.90;;;;;;5031289;28;19929;-81
2022/05/14 03:48:37;;;;;;;;;;;11.40;99.90;;;;;;5014387;28;20327;-81
2022/05/14 03:51:03;;;;;;;;;;;11.40;99.90;;;;;;5031746;28;20009;-81
2022/05/14 03:53:29;;;;;;;;;;;11.40;99.90;;;;;;5015392;28;19944;-81
2022/05/14 03:55:55;;;;;;;;;;;11.40;99.90;;;;;;5031779;28;20363;-81
2022/05/14 03:58:22;;;;;;;;;;;11.40;99.90;;;;;;5011936;28;19936;-82
2022/05/14 04:00:48;;;;;;;;;;;11.40;99.90;;;;;;5028345;28;19948;-81
2022/05/14 04:03:14;;;;;;;;;;;11.40;99.90;;;;;;5015393;28;19925;-81
2022/05/14 04:05:39;;;;;;;;;;;11.50;99.90;;;;;;5031723;28;19972;-82
2022/05/14 04:08:05;;;;;;;;;;;11.50;99.90;;;;;;5015454;28;20005;-81
2022/05/14 04:10:31;;;;;;;;;;;11.50;99.90;;;;;;5025771;28;19932;-82
2022/05/14 04:12:56;;;;;;;;;;;11.50;99.90;;;;;;5031045;28;19925;-82
2022/05/14 04:15:25;;;;;;;;;;;11.50;99.90;;;;;;5031829;28;19940;-81
2022/05/14 04:17:51;;;;;;;;;;;11.50;99.90;;;;;;5004805;28;19961;-81
2022/05/14 04:20:16;;;;;;;;;;;11.50;99.90;;;;;;5000739;28;20284;-81
2022/05/14 04:22:43;;;;;;;;;;;11.50;99.90;;;;;;5012310;28;19929;-81
2022/05/14 04:25:09;;;;;;;;;;;11.60;99.90;;;;;;4995141;28;19929;-81
2022/05/14 04:27:34;;;;;;;;;;;11.60;99.90;;;;;;4998879;28;19928;-82
2022/05/14 04:30:00;;;;;;;;;;;11.60;99.90;;;;;;5026193;28;19929;-82
2022/05/14 04:32:26;;;;;;;;;;;11.60;99.90;;;;;;5025651;28;19970;-81
2022/05/14 04:34:51;;;;;;;;;;;11.70;99.90;;;;;;5013912;28;19933;-82
2022/05/14 04:37:17;;;;;;;;;;;11.70;99.90;;;;;;5032278;28;20154;-81
2022/05/14 04:39:42;;;;;;;;;;;11.70;99.90;;;;;;5020102;28;20549;-81
2022/05/14 04:42:09;;;;;;;;;;;11.70;99.90;;;;;;5023313;28;19929;-81
2022/05/14 04:44:35;;;;;;;;;;;11.80;99.90;;;;;;5031135;28;19932;-81
2022/05/14 04:47:01;;;;;;;;;;;11.80;99.90;;;;;;5031087;28;20030;-81
2022/05/14 04:49:30;;;;;;;;;;;11.80;99.90;;;;;;5014505;28;19995;-81
2022/05/14 04:51:56;;;;;;;;;;;11.80;99.90;;;;;;4997286;28;20386;-81
2022/05/14 04:54:22;;;;;;;;;;;11.80;99.90;;;;;;5011699;28;19925;-81
2022/05/14 04:56:48;;;;;;;;;;;11.90;99.90;;;;;;4994833;28;19953;-81
2022/05/14 04:59:13;;;;;;;;;;;11.90;99.90;;;;;;4997478;28;19980;-81
2022/05/14 05:03:16;;;;;;;;;;;11.90;99.90;;;;;;5000548;28;19961;-81
2022/05/14 05:04:25;;;;;;;;;;;12.00;99.90;;;;;;5011043;28;19926;-79
2022/05/14 05:06:51;;;;;;;;;;;12.00;99.90;;;;;;4998344;28;20262;-78
2022/05/14 05:09:16;;;;;;;;;;;12.10;99.90;;;;;;5010708;28;20318;-82
2022/05/14 05:11:42;;;;;;;;;;;12.10;99.90;;;;;;5000012;28;20048;-82
2022/05/14 05:14:07;;;;;;;;;;;12.20;99.90;;;;;;5017927;28;19929;-81
2022/05/14 05:16:33;;;;;;;;;;;12.20;99.90;;;;;;5022007;28;20028;-82
2022/05/14 05:18:58;;;;;;;;;;;12.30;99.90;;;;;;5014010;28;20404;-82
2022/05/14 05:21:24;;;;;;;;;;;12.30;99.90;;;;;;5013276;28;20020;-81
2022/05/14 05:23:49;;;;;;;;;;;12.30;99.90;;;;;;4997107;28;19930;-82
2022/05/14 05:26:15;;;;;;;;;;;12.50;99.90;;;;;;4998157;28;20429;-81
2022/05/14 05:28:40;;;;;;;;;;;12.50;99.90;;;;;;5014660;28;19922;-82
2022/05/14 05:31:07;;;;;;;;;;;12.60;99.90;;;;;;5014751;28;19932;-82
2022/05/14 05:33:32;;;;;;;;;;;12.70;99.90;;;;;;5027389;28;19971;-81
2022/05/14 05:35:58;;;;;;;;;;;12.70;99.90;;;;;;5012083;28;19929;-82
2022/05/14 05:38:23;;;;;;;;;;;12.80;99.90;;;;;;5014583;28;19975;-82
2022/05/14 05:40:51;;;;;;;;;;;12.80;99.90;;;;;;5014227;28;20004;-81
2022/05/14 05:43:17;;;;;;;;;;;12.90;99.90;;;;;;5014968;28;19925;-82
2022/05/14 05:45:44;;;;;;;;;;;13.00;99.90;;;;;;5019440;28;19983;-81
2022/05/14 05:48:10;;;;;;;;;;;13.10;99.90;;;;;;5033666;28;19994;-81
2022/05/14 05:50:38;;;;;;;;;;;13.10;99.90;;;;;;5001182;28;20381;-82
2022/05/14 05:53:03;;;;;;;;;;;13.20;99.90;;;;;;5031460;28;19925;-82
2022/05/14 05:58:15;;;;;;;;;;;13.40;99.90;;;;;;5014446;28;20524;-81
2022/05/14 06:00:41;;;;;;;;;;;13.40;99.90;;;;;;5013829;28;20444;-85
2022/05/14 06:03:06;;;;;;;;;;;13.40;99.90;;;;;;5021479;28;19925;-86
2022/05/14 06:05:32;;;;;;;;;;;13.30;99.90;;;;;;5032783;28;19925;-86
2022/05/14 06:07:58;;;;;;;;;;;13.40;99.90;;;;;;5033732;28;19925;-82
2022/05/14 06:10:23;;;;;;;;;;;13.50;99.90;;;;;;5017058;28;19979;-79
2022/05/14 06:12:49;;;;;;;;;;;13.50;99.90;;;;;;5036431;28;19925;-83
2022/05/14 06:15:16;;;;;;;;;;;13.60;99.90;;;;;;5018201;28;19925;-82
2022/05/14 06:17:43;;;;;;;;;;;13.60;99.90;;;;;;5033783;28;20294;-83
2022/05/14 06:20:10;;;;;;;;;;;13.70;99.90;;;;;;5006702;28;20428;-83
2022/05/14 06:22:36;;;;;;;;;;;13.80;99.90;;;;;;5021611;28;19960;-82
2022/05/14 06:25:03;;;;;;;;;;;13.80;99.90;;;;;;5020727;28;20015;-83
2022/05/14 06:27:29;;;;;;;;;;;13.90;99.90;;;;;;4996901;28;20014;-81
2022/05/14 06:29:54;;;;;;;;;;;13.90;99.90;;;;;;5023673;28;20015;-82
2022/05/14 06:32:20;;;;;;;;;;;14.00;99.90;;;;;;5015494;28;19959;-81
2022/05/14 06:34:45;;;;;;;;;;;14.00;99.90;;;;;;5032560;28;19965;-81
2022/05/14 06:37:13;;;;;;;;;;;14.10;99.90;;;;;;5032132;28;19925;-83
2022/05/14 06:39:39;;;;;;;;;;;14.10;99.90;;;;;;5015830;28;19948;-82
2022/05/14 06:42:04;;;;;;;;;;;14.20;99.90;;;;;;5033397;28;19925;-82
2022/05/14 06:44:30;;;;;;;;;;;14.20;99.90;;;;;;5016090;28;20394;-78
2022/05/14 06:46:57;;;;;;;;;;;14.20;99.90;;;;;;5013095;28;19925;-82
2022/05/14 06:49:22;;;;;;;;;;;14.20;99.90;;;;;;5029486;28;20262;-82
2022/05/14 06:51:48;;;;;;;;;;;14.30;99.90;;;;;;5022334;28;20000;-80
2022/05/14 06:54:14;;;;;;;;;;;14.30;99.90;;;;;;4997554;28;19925;-80
2022/05/14 06:56:41;;;;;;;;;;;14.40;99.90;;;;;;5013373;28;19964;-78
2022/05/14 06:59:07;;;;;;;;;;;14.40;99.90;;;;;;5034520;28;19956;-80
2022/05/14 07:01:35;;;;;;;;;;;14.50;99.90;;;;;;5016155;28;19933;-79
2022/05/14 07:06:48;;;;;;;;;;;14.50;99.90;;;;;;5016555;28;20000;-80
2022/05/14 07:09:16;;;;;;;;;;;14.70;99.90;;;;;;5043568;28;19925;-79
2022/05/14 07:11:42;;;;;;;;;;;14.70;99.90;;;;;;5015980;28;19932;-79
2022/05/14 07:14:09;;;;;;;;;;;14.70;99.90;;;;;;5032391;28;19925;-80
2022/05/14 07:16:35;;;;;;;;;;;14.70;99.90;;;;;;5013295;28;20357;-80
2022/05/14 07:19:01;;;;;;;;;;;14.70;99.90;;;;;;5023734;28;19928;-80
2022/05/14 07:21:26;;;;;;;;;;;14.80;99.90;;;;;;5023248;28;19925;-83
2022/05/14 07:23:53;;;;;;;;;;;14.90;99.90;;;;;;5005518;28;20277;-78
2022/05/14 07:26:18;;;;;;;;;;;14.90;99.90;;;;;;5007534;28;19929;-79
2022/05/14 07:28:44;;;;;;;;;;;15.00;99.90;;;;;;5006122;28;19978;-79
2022/05/14 07:31:10;;;;;;;;;;;15.00;99.90;;;;;;5015614;28;20641;-78
2022/05/14 07:33:36;;;;;;;;;;;15.10;99.90;;;;;;5032340;28;19951;-80
2022/05/14 07:36:04;;;;;;;;;;;15.10;99.90;;;;;;5032065;28;20012;-77
2022/05/14 07:38:30;;;;;;;;;;;15.20;99.90;;;;;;5013908;28;19925;-78
2022/05/14 07:40:55;;;;;;;;;;;15.20;99.90;;;;;;5015231;28;20400;-76
2022/05/14 07:43:26;;;;;;;;;;;15.30;99.90;;;;;;5016568;28;19925;-76
2022/05/14 07:45:56;;;;;;;;;;;15.30;99.90;;;;;;5013606;28;19925;-78
2022/05/14 07:48:25;;;;;;;;;;;15.40;99.90;;;;;;5023855;28;19925;-77
2022/05/14 07:50:50;;;;;;;;;;;15.40;99.90;;;;;;5020438;28;20033;-78
2022/05/14 07:53:16;;;;;;;;;;;15.40;99.90;;;;;;5020032;28;20016;-78
2022/05/14 07:55:43;;;;;;;;;;;15.40;99.90;;;;;;5019377;28;20004;-79
2022/05/14 07:58:09;;;;;;;;;;;15.50;99.90;;;;;;5015881;28;20389;-78
2022/05/14 08:00:35;;;;;;;;;;;15.60;99.90;;;;;;5012057;28;19948;-79
2022/05/14 08:03:01;;;;;;;;;;;15.50;99.90;;;;;;4998596;28;20467;-80
2022/05/14 08:05:26;;;;;;;;;;;15.60;99.90;;;;;;5031904;28;19925;-78
2022/05/14 08:07:52;;;;;;;;;;;15.60;99.90;;;;;;5011948;28;19925;-79
2022/05/14 08:10:17;;;;;;;;;;;15.70;99.90;;;;;;5015600;28;19933;-79
2022/05/14 08:12:45;;;;;;;;;;;15.70;99.90;;;;;;4978737;28;20016;-79
2022/05/14 08:15:12;;;;;;;;;;;15.70;99.90;;;;;;5012037;28;20009;-79
2022/05/14 08:17:38;;;;;;;;;;;15.80;99.90;;;;;;5011029;28;19936;-79
2022/05/14 08:20:04;;;;;;;;;;;15.90;99.90;;;;;;5012817;28;20012;-80
2022/05/14 08:25:14;;;;;;;;;;;16.00;99.90;;;;;;5030129;28;19921;-76
2022/05/14 08:27:45;;;;;;;;;;;16.00;99.90;;;;;;5014924;28;19925;-83
2022/05/14 08:30:22;;;;;;;;;;;16.10;99.90;;;;;;4998319;28;19929;-83
2022/05/14 08:32:48;;;;;;;;;;;16.20;99.90;;;;;;5031072;28;20015;-83
2022/05/14 08:35:14;;;;;;;;;;;16.20;99.90;;;;;;5013943;28;20004;-81
2022/05/14 08:37:40;;;;;;;;;;;16.30;99.90;;;;;;5013208;28;19925;-81
2022/05/14 08:40:10;;;;;;;;;;;16.40;99.90;;;;;;5010760;28;19932;-81
2022/05/14 08:42:36;;;;;;;;;;;16.40;99.90;;;;;;5031009;28;19936;-80
2022/05/14 08:45:02;;;;;;;;;;;16.50;99.90;;;;;;5014491;28;19929;-80
2022/05/14 08:47:30;;;;;;;;;;;16.50;99.90;;;;;;5029237;28;19936;-80
2022/05/14 08:49:56;;;;;;;;;;;16.50;99.90;;;;;;5028653;28;19936;-80
2022/05/14 08:52:23;;;;;;;;;;;16.50;99.90;;;;;;4999288;28;19926;-81
2022/05/14 08:54:56;;;;;;;;;;;16.50;99.90;;;;;;5011385;28;19976;-80
2022/05/14 08:57:29;;;;;;;;;;;16.50;99.90;;;;;;4995244;28;19926;-78
2022/05/14 08:59:56;;;;;;;;;;;16.50;99.90;;;;;;5017917;28;19931;-75
2022/05/14 09:02:23;;;;;;;;;;;16.60;99.90;;;;;;5001587;28;20000;-78
2022/05/14 09:04:50;;;;;;;;;;;16.60;99.90;;;;;;5029973;28;19929;-80
2022/05/14 09:07:16;;;;;;;;;;;16.70;99.90;;;;;;5017798;28;20345;-80
2022/05/14 09:09:50;;;;;;;;;;;16.70;99.90;;;;;;5017359;28;19925;-78
2022/05/14 09:12:17;;;;;;;;;;;16.80;99.90;;;;;;5032980;28;19929;-82
2022/05/14 09:14:43;;;;;;;;;;;16.80;99.90;;;;;;5032157;28;20016;-79
2022/05/14 09:17:20;;;;;;;;;;;16.90;99.90;;;;;;5015381;28;19925;-80
2022/05/14 09:19:46;;;;;;;;;;;16.90;99.90;;;;;;5034479;28;20340;-86
2022/05/14 09:22:30;;;;;;;;;;;17.10;99.90;;;;;;5011906;28;19925;-83
2022/05/14 09:25:02;;;;;;;;;;;17.20;99.90;;;;;;5018197;28;19929;-83
2022/05/14 09:27:34;;;;;;;;;;;17.20;99.90;;;;;;5021565;28;19951;-82
2022/05/14 09:30:05;;;;;;;;;;;17.20;99.90;;;;;;4998170;28;19926;-79
2022/05/14 09:32:34;;;;;;;;;;;17.20;99.90;;;;;;5011661;28;20027;-80
2022/05/14 09:35:20;;;;;;;;;;;17.20;99.90;;;;;;5025513;28;19929;-81
2022/05/14 09:37:46;;;;;;;;;;;17.30;99.90;;;;;;5033305;28;19925;-81
2022/05/14 09:40:13;;;;;;;;;;;17.40;99.90;;;;;;5018147;28;19932;-79
2022/05/14 09:42:44;;;;;;;;;;;17.40;99.90;;;;;;5030039;28;20011;-77
2022/05/14 09:45:20;;;;;;;;;;;17.30;99.90;;;;;;5034492;28;19968;-78
2022/05/14 09:47:46;;;;;;;;;;;17.30;99.90;;;;;;5015362;28;20333;-78
2022/05/14 09:50:16;;;;;;;;;;;17.40;99.90;;;;;;5034624;28;19971;-77
2022/05/14 09:52:52;;;;;;;;;;;17.40;99.90;;;;;;5034812;28;19975;-77
2022/05/14 09:55:18;;;;;;;;;;;17.60;99.90;;;;;;5035600;28;19979;-75
2022/05/14 09:57:47;;;;;;;;;;;17.60;99.90;;;;;;5018574;28;19925;-75
2022/05/14 10:00:13;;;;;;;;;;;17.60;99.90;;;;;;5030433;28;19982;-77
2022/05/14 10:02:57;;;;;;;;;;;17.60;99.90;;;;;;5003346;28;20000;-76
2022/05/14 10:05:35;;;;;;;;;;;17.70;99.90;;;;;;5003251;28;19975;-76
2022/05/14 10:08:20;;;;;;;;;;;17.70;99.90;;;;;;5001362;28;19934;-75
2022/05/14 10:10:55;;;;;;;;;;;17.70;99.90;;;;;;5028851;28;19933;-76
2022/05/14 10:13:43;;;;;;;;;;;17.80;99.90;;;;;;5035228;28;19947;-77
2022/05/14 10:16:12;;;;;;;;;;;17.90;99.90;;;;;;5015152;28;19982;-82
2022/05/14 10:18:56;;;;;;;;;;;18.00;99.90;;;;;;5014720;28;20428;-78
2022/05/14 10:21:34;;;;;;;;;;;18.10;99.90;;;;;;5021189;28;20009;-77
2022/05/14 10:27:11;;;;;;;;;;;18.00;99.90;;;;;;5034630;28;19932;-77
2022/05/14 10:29:46;;;;;;;;;;;18.10;99.90;;;;;;5027885;28;19925;-77
2022/05/14 10:32:18;;;;;;;;;;;18.10;99.90;;;;;;5021866;28;19928;-77
2022/05/14 10:34:44;;;;;;;;;;;18.30;99.90;;;;;;5033935;28;20016;-76
2022/05/14 10:37:10;;;;;;;;;;;18.30;99.90;;;;;;5034293;28;19925;-76
2022/05/14 10:40:02;;;;;;;;;;;18.40;99.90;;;;;;5028879;28;20242;-77
2022/05/14 10:42:45;;;;;;;;;;;18.40;99.90;;;;;;5026359;28;20381;-77
2022/05/14 10:45:14;;;;;;;;;;;18.50;99.90;;;;;;5008514;28;19929;-78
2022/05/14 10:47:43;;;;;;;;;;;18.60;99.90;;;;;;5011429;28;20378;-78
2022/05/14 10:50:14;;;;;;;;;;;18.90;99.90;;;;;;5035315;28;19925;-78
2022/05/14 10:52:41;;;;;;;;;;;19.10;99.90;;;;;;5030473;28;19925;-82
2022/05/14 10:55:15;;;;;;;;;;;19.40;99.90;;;;;;5033311;28;19929;-79
2022/05/14 10:57:43;;;;;;;;;;;19.40;99.90;;;;;;5032948;28;20424;-79
2022/05/14 11:00:11;;;;;;;;;;;19.30;99.90;;;;;;5032202;28;20039;-79
2022/05/14 11:02:48;;;;;;;;;;;19.40;99.90;;;;;;5031643;28;19960;-76
2022/05/14 11:05:25;;;;;;;;;;;19.30;99.90;;;;;;5008106;28;19933;-77
2022/05/14 11:07:51;;;;;;;;;;;19.30;99.90;;;;;;5002403;28;20336;-79
2022/05/14 11:10:18;;;;;;;;;;;19.40;99.90;;;;;;5033263;28;19929;-77
2022/05/14 11:12:46;;;;;;;;;;;19.50;99.90;;;;;;5029936;28;20441;-84
2022/05/14 11:15:41;;;;;;;;;;;19.70;99.90;;;;;;5005614;28;19925;-82
2022/05/14 11:18:08;;;;;;;;;;;19.70;99.90;;;;;;4994209;28;20370;-79
2022/05/14 11:20:34;;;;;;;;;;;19.80;99.90;;;;;;5003678;28;19925;-83
2022/05/14 11:23:08;;;;;;;;;;;20.00;99.90;;;;;;5033290;28;19931;-78
2022/05/14 11:25:33;;;;;;;;;;;19.90;99.90;;;;;;5033310;28;19925;-77
2022/05/14 11:28:13;;;;;;;;;;;20.00;99.90;;;;;;5010216;28;20008;-77
2022/05/14 11:30:41;;;;;;;;;;;20.00;99.90;;;;;;5033444;28;19932;-77
2022/05/14 11:33:18;;;;;;;;;;;20.30;99.90;;;;;;5016257;28;19996;-77
2022/05/14 11:35:44;;;;;;;;;;;20.40;99.90;;;;;;5015850;28;19933;-78
2022/05/14 11:38:14;;;;;;;;;;;20.60;99.90;;;;;;5015256;28;19983;-77
2022/05/14 11:40:40;;;;;;;;;;;20.70;99.90;;;;;;5029087;28;19925;-77
2022/05/14 11:43:08;;;;;;;;;;;20.70;99.90;;;;;;5028137;28;20019;-79
2022/05/14 11:45:34;;;;;;;;;;;20.90;99.90;;;;;;5030643;28;19925;-80
2022/05/14 11:48:00;;;;;;;;;;;20.90;99.90;;;;;;5029931;28;19925;-82
2022/05/14 11:50:29;;;;;;;;;;;20.80;99.90;;;;;;5030541;28;19925;-80
2022/05/14 11:53:01;;;;;;;;;;;21.20;99.90;;;;;;5031786;28;20370;-79
2022/05/14 11:55:32;;;;;;;;;;;21.30;99.90;;;;;;5029199;28;20008;-79
2022/05/14 11:58:09;;;;;;;;;;;21.50;99.90;;;;;;5027572;28;19925;-79
2022/05/14 12:00:35;;;;;;;;;;;21.40;99.90;;;;;;5027823;28;20366;-78
2022/05/14 12:03:09;;;;;;;;;;;21.30;99.90;;;;;;5031415;28;19936;-88
2022/05/14 12:05:42;;;;;;;;;;;21.60;99.90;;;;;;5012722;28;19925;-83
2022/05/14 12:08:14;;;;;;;;;;;21.80;99.90;;;;;;5028478;28;20476;-84
2022/05/14 12:10:42;;;;;;;;;;;21.90;99.90;;;;;;5007726;28;19975;-84
2022/05/14 12:13:21;;;;;;;;;;;22.10;99.90;;;;;;5015843;28;19929;-88
2022/05/14 12:15:48;;;;;;;;;;;22.10;99.90;;;;;;5004657;28;19925;-84
2022/05/14 12:18:14;;;;;;;;;;;22.00;99.10;;;;;;5010970;28;19925;-80
2022/05/14 12:20:40;;;;;;;;;;;22.10;99.80;;;;;;5025479;28;19936;-77
2022/05/14 12:23:11;;;;;;;;;;;22.20;99.90;;;;;;5013695;28;19925;-79
2022/05/14 12:25:39;;;;;;;;;;;22.00;97.40;;;;;;5017934;28;19929;-78
2022/05/14 12:28:05;;;;;;;;;;;21.90;97.90;;;;;;5016792;28;19926;-78
2022/05/14 12:33:19;;;;;;;;;;;22.00;99.30;;;;;;5011205;28;20023;-78
2022/05/14 12:35:53;;;;;;;;;;;22.30;99.40;;;;;;4997717;28;20008;-78
2022/05/14 12:38:21;;;;;;;;;;;22.40;98.00;;;;;;5031472;28;20273;-78
2022/05/14 12:40:47;;;;;;;;;;;22.40;98.20;;;;;;5012597;28;19932;-80
2022/05/14 12:43:13;;;;;;;;;;;22.30;99.00;;;;;;5021450;28;20293;-81
2022/05/14 12:45:40;;;;;;;;;;;22.50;98.70;;;;;;5025887;28;19925;-79
2022/05/14 12:48:06;;;;;;;;;;;22.50;97.90;;;;;;5028694;28;20067;-78
2022/05/14 12:50:35;;;;;;;;;;;22.60;98.20;;;;;;5028861;28;20255;-79
2022/05/14 12:53:06;;;;;;;;;;;22.30;98.60;;;;;;5029707;28;20369;-80
2022/05/14 12:55:35;;;;;;;;;;;22.20;97.80;;;;;;5013857;28;19925;-79
2022/05/14 12:58:01;;;;;;;;;;;22.50;97.90;;;;;;5030412;28;19929;-77
2022/05/14 13:00:28;;;;;;;;;;;22.50;97.10;;;;;;5015033;28;19921;-77
2022/05/14 13:02:53;;;;;;;;;;;22.50;97.10;;;;;;5023330;28;20313;-78
2022/05/14 13:05:31;;;;;;;;;;;22.80;97.90;;;;;;5030662;28;19932;-80
2022/05/14 13:08:08;;;;;;;;;;;22.90;97.50;;;;;;5032623;28;19933;-82
2022/05/14 13:10:34;;;;;;;;;;;23.00;96.20;;;;;;5028405;28;19948;-85
2022/05/14 13:13:02;;;;;;;;;;;23.10;96.00;;;;;;4978336;28;20285;-84
2022/05/14 13:15:53;;;;;;;;;;;23.20;94.90;;;;;;5022389;28;20265;-80
2022/05/14 13:18:22;;;;;;;;;;;23.20;94.10;;;;;;5015335;28;19952;-81
2022/05/14 13:21:11;;;;;;;;;;;23.50;94.10;;;;;;5013920;28;20022;-81
2022/05/14 13:23:36;;;;;;;;;;;23.50;93.40;;;;;;5013729;28;19933;-90
2022/05/14 13:26:12;;;;;;;;;;;23.30;93.30;;;;;;5028564;28;19925;-84
2022/05/14 13:28:40;;;;;;;;;;;23.50;93.70;;;;;;5010744;28;20296;-79
2022/05/14 13:31:22;;;;;;;;;;;23.50;93.40;;;;;;5029523;28;19933;-81
2022/05/14 13:33:58;;;;;;;;;;;23.60;93.30;;;;;;5028950;28;20318;-78
2022/05/14 13:39:13;;;;;;;;;;;23.50;93.30;;;;;;5028975;28;19975;-81
2022/05/14 13:41:46;;;;;;;;;;;23.80;93.20;;;;;;5017720;28;19930;-82
2022/05/14 13:44:21;;;;;;;;;;;23.80;91.80;;;;;;5011207;28;19925;-81
2022/05/14 13:46:51;;;;;;;;;;;23.90;92.50;;;;;;5035402;28;19936;-77
2022/05/14 13:49:20;;;;;;;;;;;24.00;91.50;;;;;;5031369;28;20465;-77
2022/05/14 13:51:49;;;;;;;;;;;23.90;89.00;;;;;;5023738;28;19929;-79
2022/05/14 13:54:27;;;;;;;;;;;23.80;90.70;;;;;;5000243;28;20363;-79
2022/05/14 13:57:00;;;;;;;;;;;24.00;91.50;;;;;;5034606;28;20378;-79
2022/05/14 13:59:28;;;;;;;;;;;24.10;90.80;;;;;;5033532;28;19929;-79
2022/05/14 14:02:13;;;;;;;;;;;24.20;89.50;;;;;;5035385;28;19932;-79
2022/05/14 14:04:40;;;;;;;;;;;24.30;88.60;;;;;;5006564;28;20071;-83
2022/05/14 14:07:07;;;;;;;;;;;24.50;90.20;;;;;;5009930;28;19937;-84
2022/05/14 14:09:34;;;;;;;;;;;24.40;86.10;;;;;;5013901;28;19926;-77
2022/05/14 14:12:00;;;;;;;;;;;24.30;85.80;;;;;;5025504;28;20403;-82
2022/05/14 14:14:26;;;;;;;;;;;24.30;86.60;;;;;;5022990;28;19929;-79
2022/05/14 14:16:52;;;;;;;;;;;24.50;86.30;;;;;;5008333;28;20450;-80
2022/05/14 14:19:17;;;;;;;;;;;24.70;85.90;;;;;;4997383;28;19926;-79
2022/05/14 14:21:44;;;;;;;;;;;24.70;84.70;;;;;;5017097;28;19968;-81
2022/05/14 14:24:12;;;;;;;;;;;24.80;85.10;;;;;;5013135;28;19936;-78
2022/05/14 14:26:37;;;;;;;;;;;24.50;84.30;;;;;;5032216;28;19931;-79
2022/05/14 14:29:03;;;;;;;;;;;23.80;89.00;;;;;;5021426;28;20321;-80
2022/05/14 14:31:29;;;;;;;;;;;23.60;89.80;;;;;;5028907;28;19929;-79
2022/05/14 14:33:55;;;;;;;;;;;23.60;89.20;;;;;;5025844;28;19976;-79
2022/05/14 14:36:23;;;;;;;;;;;23.90;89.10;;;;;;5003259;28;19968;-80
2022/05/14 14:38:49;;;;;;;;;;;23.60;86.90;;;;;;5029852;28;19933;-79
2022/05/14 14:41:15;;;;;;;;;;;23.40;89.00;;;;;;5022423;28;20045;-78